createdAt,value
2023-03-12T00:00:59.142Z,13.3
2023-03-12T00:03:01.079Z,13.3
2023-03-12T00:09:27.653Z,13.1
2023-03-12T00:13:34.682Z,13.5
2023-03-12T00:15:36.656Z,11.7
2023-03-12T00:17:38.517Z,13.2
2023-03-12T00:23:44.297Z,13.2
2023-03-12T00:25:49.370Z,14.8
2023-03-12T00:29:53.228Z,10.9
2023-03-12T00:31:55.165Z,10.6
2023-03-12T00:35:59.029Z,12.3
2023-03-12T00:42:07.915Z,13.1
2023-03-12T00:44:09.817Z,10.7
2023-03-12T00:52:17.505Z,8.9
2023-03-12T00:56:24.499Z,10.5
2023-03-12T00:59:28.932Z,9.9
2023-03-12T01:07:41.209Z,9.9
2023-03-12T01:15:48.950Z,8.7
2023-03-12T01:17:50.817Z,8.6
2023-03-12T01:34:09.337Z,10
2023-03-12T01:40:18.254Z,9
2023-03-12T01:42:20.186Z,9.7
2023-03-12T01:44:22.096Z,9.5
2023-03-12T01:50:31.048Z,10.9
2023-03-12T01:52:32.995Z,10.8
2023-03-12T01:55:37.444Z,9.3
2023-03-12T01:57:39.401Z,9
2023-03-12T01:59:41.346Z,11.6
2023-03-12T02:03:48.389Z,10.6
2023-03-12T02:05:50.304Z,9.4
2023-03-12T02:13:58.054Z,43.7
2023-03-12T02:15:59.978Z,64.7
2023-03-12T02:22:09.002Z,84.7
2023-03-12T02:26:12.861Z,59.3
2023-03-12T02:28:14.787Z,43.7
2023-03-12T02:32:21.901Z,22.9
2023-03-12T02:34:23.768Z,16
2023-03-12T02:36:25.715Z,13.5
2023-03-12T02:38:27.683Z,10.6
2023-03-12T02:42:31.607Z,11
2023-03-12T02:44:33.500Z,9.3
2023-03-12T02:50:42.474Z,10.3
2023-03-12T02:51:45.043Z,9
2023-03-12T02:53:46.971Z,9.3
2023-03-12T02:55:48.965Z,9.7
2023-03-12T02:57:50.869Z,9.4
2023-03-12T02:59:56.014Z,9.3
2023-03-12T03:01:57.928Z,8.9
2023-03-12T03:03:59.868Z,8.2
2023-03-12T03:06:01.813Z,8.7
2023-03-12T03:08:03.755Z,9.1
2023-03-12T03:10:05.733Z,7.5
2023-03-12T03:12:07.687Z,8.7
2023-03-12T03:14:12.766Z,8.7
2023-03-12T03:16:14.960Z,8.2
2023-03-12T03:18:16.671Z,7.7
2023-03-12T03:20:18.602Z,7.5
2023-03-12T03:22:20.552Z,6.6
2023-03-12T03:24:22.492Z,9.1
2023-03-12T03:26:24.477Z,7.2
2023-03-12T03:30:31.542Z,7.6
2023-03-12T03:32:33.553Z,11.5
2023-03-12T03:38:39.364Z,19.2
2023-03-12T03:40:41.316Z,15.5
2023-03-12T03:42:46.438Z,13.7
2023-03-12T03:44:48.391Z,12.1
2023-03-12T03:46:50.324Z,9
2023-03-12T03:51:09.374Z,8
2023-03-12T03:53:11.319Z,7.3
2023-03-12T03:55:16.414Z,7.2
2023-03-12T03:57:18.389Z,7.1
2023-03-12T03:59:20.345Z,7.5
2023-03-12T04:01:22.301Z,7.8
2023-03-12T04:03:24.277Z,8
2023-03-12T04:05:26.216Z,8.1
2023-03-12T04:07:28.168Z,7.7
2023-03-12T04:09:33.252Z,8.6
2023-03-12T04:11:35.220Z,8.3
2023-03-12T04:13:37.188Z,7
2023-03-12T04:15:39.159Z,6.8
2023-03-12T04:17:41.154Z,7.7
2023-03-12T04:19:43.047Z,6.6
2023-03-12T04:21:44.991Z,8.2
2023-03-12T04:23:50.149Z,7.8
2023-03-12T04:25:52.186Z,6.4
2023-03-12T04:27:54.041Z,7.4
2023-03-12T04:29:56.006Z,7.8
2023-03-12T04:31:57.935Z,6.7
2023-03-12T04:33:59.898Z,7
2023-03-12T04:36:01.915Z,6
2023-03-12T04:38:06.962Z,6.2
2023-03-12T04:40:08.935Z,8.7
2023-03-12T04:42:10.876Z,7.4
2023-03-12T04:55:28.346Z,7.5
2023-03-12T04:57:30.332Z,7.3
2023-03-12T04:59:32.256Z,8.3
2023-03-12T05:01:34.233Z,7.6
2023-03-12T05:03:36.279Z,7.3
2023-03-12T05:05:41.313Z,7.5
2023-03-12T05:07:43.261Z,8.6
2023-03-12T05:09:45.216Z,8.2
2023-03-12T05:11:47.180Z,8.4
2023-03-12T05:13:49.167Z,7.8
2023-03-12T05:15:51.113Z,7.8
2023-03-12T05:17:54.738Z,8
2023-03-12T05:24:02.140Z,6.5
2023-03-12T05:26:04.128Z,5.9
2023-03-12T05:28:06.053Z,5.6
2023-03-12T05:30:08.028Z,6
2023-03-12T05:32:09.989Z,4.9
2023-03-12T05:34:15.119Z,6.1
2023-03-12T05:36:17.082Z,4.8
2023-03-12T05:38:19.040Z,5.2
2023-03-12T05:39:21.620Z,4.2
2023-03-12T05:41:23.582Z,4.7
2023-03-12T05:43:25.576Z,5.2
2023-03-12T05:47:32.653Z,6.6
2023-03-12T05:57:42.551Z,4.3
2023-03-12T06:03:51.621Z,6
2023-03-12T06:05:53.593Z,6.9
2023-03-12T06:07:55.549Z,7.7
2023-03-12T06:09:57.536Z,5.9
2023-03-12T06:14:01.511Z,6.3
2023-03-12T06:22:12.561Z,7
2023-03-12T06:26:16.491Z,6.4
2023-03-12T06:28:18.465Z,6.9
2023-03-12T06:30:23.597Z,5.8
2023-03-12T06:32:25.630Z,5.7
2023-03-12T06:35:30.196Z,7.2
2023-03-12T06:37:32.084Z,6.5
2023-03-12T06:39:34.096Z,5.9
2023-03-12T06:41:36.074Z,6.2
2023-03-12T06:43:41.202Z,6.2
2023-03-12T06:45:43.171Z,5.2
2023-03-12T06:47:45.161Z,5
2023-03-12T06:49:47.132Z,5.9
2023-03-12T06:51:49.128Z,5.7
2023-03-12T06:53:52.609Z,6.5
2023-03-12T06:55:54.558Z,7.6
2023-03-12T06:57:59.684Z,8.2
2023-03-12T07:00:01.688Z,6.3
2023-03-12T07:02:03.709Z,7.1
2023-03-12T07:04:05.641Z,10
2023-03-12T07:06:07.630Z,12.2
2023-03-12T07:08:09.618Z,12.3
2023-03-12T07:10:11.592Z,11.6
2023-03-12T07:12:16.737Z,10.3
2023-03-12T07:14:18.704Z,10.3
2023-03-12T07:16:20.799Z,9.3
2023-03-12T07:18:22.671Z,8.9
2023-03-12T07:20:24.637Z,9.7
2023-03-12T07:22:26.629Z,8.8
2023-03-12T07:24:28.610Z,9.5
2023-03-12T07:26:33.771Z,9.3
2023-03-12T07:30:37.738Z,6.7
2023-03-12T07:35:02.499Z,8.3
2023-03-12T07:37:04.492Z,5.2
2023-03-12T07:41:11.646Z,9.2
2023-03-12T07:43:13.632Z,8
2023-03-12T07:45:15.663Z,8
2023-03-12T07:51:21.626Z,11.3
2023-03-12T07:59:32.745Z,8
2023-03-12T08:03:36.984Z,7.4
2023-03-12T08:15:51.923Z,9
2023-03-12T08:22:01.078Z,7.1
2023-03-12T08:24:03.058Z,8.8
2023-03-12T08:27:07.598Z,9.1
2023-03-12T08:31:11.645Z,8.2
2023-03-12T08:33:13.617Z,7.3
2023-03-12T08:35:18.758Z,8.7
2023-03-12T08:37:20.758Z,8.9
2023-03-12T08:39:22.766Z,8.1
2023-03-12T08:41:24.785Z,7.8
2023-03-12T08:43:29.061Z,8.6
2023-03-12T08:49:35.915Z,8.6
2023-03-12T08:55:41.918Z,9.7
2023-03-12T09:03:53.109Z,8.5
2023-03-12T09:07:57.131Z,9.7
2023-03-12T09:16:05.146Z,8.8
2023-03-12T09:22:14.321Z,9.8
2023-03-12T09:23:16.920Z,13.7
2023-03-12T09:25:18.939Z,10.5
2023-03-12T09:27:20.939Z,9.2
2023-03-12T09:31:28.127Z,9
2023-03-12T09:37:34.144Z,10
2023-03-12T09:45:45.433Z,8.8
2023-03-12T09:47:47.389Z,9.2
2023-03-12T09:49:49.426Z,7.6
2023-03-12T09:53:53.480Z,8.4
2023-03-12T09:55:55.528Z,8.6
2023-03-12T09:57:57.577Z,8
2023-03-12T10:00:02.726Z,9.2
2023-03-12T10:02:04.654Z,13.1
2023-03-12T10:04:06.772Z,13.2
2023-03-12T10:06:08.804Z,11
2023-03-12T10:08:24.857Z,12.2
2023-03-12T10:10:12.667Z,8.8
2023-03-12T10:12:14.605Z,11.7
2023-03-12T10:14:23.758Z,10.5
2023-03-12T10:16:21.625Z,11.8
2023-03-12T10:18:23.541Z,9.7
2023-03-12T10:19:26.068Z,12.4
2023-03-12T10:21:28.015Z,12.6
2023-03-12T10:35:44.664Z,14.3
2023-03-12T10:37:46.573Z,15.4
2023-03-12T10:39:48.541Z,12.7
2023-03-12T10:45:57.471Z,12.5
2023-03-12T10:47:59.382Z,15.3
2023-03-12T10:54:05.209Z,14.1
2023-03-12T11:00:14.085Z,13.4
2023-03-12T11:02:16.017Z,12.9
2023-03-12T11:04:17.970Z,17.9
2023-03-12T11:10:26.831Z,19.8
2023-03-12T11:12:28.809Z,19
2023-03-12T11:18:55.603Z,19.9
2023-03-12T11:20:57.538Z,18.2
2023-03-12T11:25:04.519Z,19.5
2023-03-12T11:27:06.468Z,19.7
2023-03-12T11:29:08.439Z,18.9
2023-03-12T11:31:10.500Z,18.9
2023-03-12T11:33:12.323Z,19.8
2023-03-12T11:35:14.278Z,20.7
2023-03-12T11:41:23.216Z,17.6
2023-03-12T11:43:41.529Z,23.2
2023-03-12T11:45:27.149Z,18.1
2023-03-12T11:47:29.171Z,19.5
2023-03-12T11:49:31.592Z,18.4
2023-03-12T11:51:36.619Z,21
2023-03-12T11:53:38.587Z,21.1
2023-03-12T11:55:40.561Z,14.6
2023-03-12T11:57:42.512Z,16.2
2023-03-12T11:59:44.485Z,19.2
2023-03-12T12:01:46.498Z,21
2023-03-12T12:03:48.427Z,21.4
2023-03-12T12:05:53.427Z,22
2023-03-12T12:07:55.432Z,20.9
2023-03-12T12:09:57.366Z,18
2023-03-12T12:11:00.307Z,19.7
2023-03-12T12:13:01.871Z,22.6
2023-03-12T12:15:03.821Z,20.8
2023-03-12T12:17:05.802Z,23.9
2023-03-12T12:19:10.822Z,23.1
2023-03-12T12:21:12.812Z,22.3
2023-03-12T12:23:14.764Z,22.5
2023-03-12T12:25:16.759Z,21.9
2023-03-12T12:29:20.687Z,17.5
2023-03-12T12:31:22.725Z,18.5
2023-03-12T12:33:27.675Z,15.5
2023-03-12T12:43:37.532Z,15.2
2023-03-12T13:02:03.549Z,12.9
2023-03-12T13:04:05.604Z,13.2
2023-03-12T13:07:09.986Z,12.9
2023-03-12T13:11:19.330Z,11.2
2023-03-12T13:13:15.897Z,12.5
2023-03-12T13:15:20.943Z,12.2
2023-03-12T13:17:22.892Z,12.6
2023-03-12T13:21:26.852Z,12.7
2023-03-12T13:23:28.804Z,13.4
2023-03-12T13:25:30.774Z,11.4
2023-03-12T13:27:32.748Z,11.6
2023-03-12T13:29:37.776Z,12.8
2023-03-12T13:31:39.805Z,9.7
2023-03-12T13:33:41.701Z,11.5
2023-03-12T13:35:43.674Z,10.4
2023-03-12T13:37:45.646Z,10.9
2023-03-12T13:39:47.609Z,12
2023-03-12T13:41:49.558Z,9.4
2023-03-12T13:43:54.679Z,13.3
2023-03-12T13:45:56.600Z,11.7
2023-03-12T13:47:58.570Z,11.2
2023-03-12T13:50:00.508Z,11.7
2023-03-12T13:54:04.470Z,14.3
2023-03-12T13:56:06.466Z,11.9
2023-03-12T13:58:11.490Z,11.8
2023-03-12T14:00:13.522Z,12.4
2023-03-12T14:02:15.432Z,10.8
2023-03-12T14:05:19.936Z,11
2023-03-12T14:07:21.908Z,13.3
2023-03-12T14:13:30.904Z,9.9
2023-03-12T14:19:36.854Z,12
2023-03-12T14:23:40.806Z,11.8
2023-03-12T14:25:45.862Z,12.9
2023-03-12T14:27:47.817Z,11.4
2023-03-12T14:29:49.806Z,10.8
2023-03-12T14:31:51.769Z,8.4
2023-03-12T14:33:53.751Z,7.3
2023-03-12T14:35:55.764Z,9.6
2023-03-12T14:37:57.702Z,9.4
2023-03-12T14:40:02.750Z,8.6
2023-03-12T14:42:04.712Z,8.8
2023-03-12T14:44:06.714Z,8.8
2023-03-12T14:48:10.655Z,11.1
2023-03-12T14:50:12.661Z,8.6
2023-03-12T14:52:14.644Z,8
2023-03-12T14:54:19.681Z,9
2023-03-12T14:56:21.636Z,8.7
2023-03-12T14:58:23.634Z,7.9
2023-03-12T15:04:51.034Z,8.3
2023-03-12T15:08:57.445Z,6.6
2023-03-12T15:10:59.410Z,7.9
2023-03-12T15:13:01.403Z,6.2
2023-03-12T15:15:03.412Z,3.6
2023-03-12T15:17:05.365Z,6.4
2023-03-12T15:19:07.352Z,7.1
2023-03-12T15:21:12.409Z,20.9
2023-03-12T15:23:14.389Z,7.1
2023-03-12T15:25:16.367Z,4.9
2023-03-12T15:27:18.353Z,6.2
2023-03-12T15:29:20.324Z,4.8
2023-03-12T15:31:22.444Z,3.3
2023-03-12T15:33:24.304Z,5.8
2023-03-12T15:35:29.445Z,5.7
2023-03-12T15:37:31.340Z,5.2
2023-03-12T15:39:33.410Z,8.3
2023-03-12T15:41:35.343Z,6.5
2023-03-12T15:43:37.340Z,4.9
2023-03-12T15:45:39.487Z,3.5
2023-03-12T15:47:41.302Z,6.1
2023-03-12T15:49:53.006Z,4.6
2023-03-12T15:51:48.345Z,4.8
2023-03-12T15:53:50.309Z,4.7
2023-03-12T15:56:54.826Z,5.9
2023-03-12T15:58:56.804Z,5.1
2023-03-12T16:00:58.837Z,6
2023-03-12T16:03:03.861Z,3.8
2023-03-12T16:05:08.066Z,5.1
2023-03-12T16:07:07.827Z,6.5
2023-03-12T16:09:09.811Z,5.5
2023-03-12T16:11:11.789Z,5.5
2023-03-12T16:13:13.825Z,5.8
2023-03-12T16:15:15.768Z,6
2023-03-12T16:17:20.803Z,6.8
2023-03-12T16:19:22.846Z,5
2023-03-12T16:21:24.771Z,3.6
2023-03-12T16:23:26.784Z,4.1
2023-03-12T16:25:28.759Z,4.5
2023-03-12T16:27:32.856Z,6.7
2023-03-12T16:29:32.717Z,6.4
2023-03-12T16:31:37.783Z,6.8
2023-03-12T16:33:39.753Z,6.4
2023-03-12T16:35:41.776Z,8.5
2023-03-12T16:37:43.706Z,5.4
2023-03-12T16:39:45.674Z,6.5
2023-03-12T16:41:47.682Z,7.1
2023-03-12T16:43:49.625Z,6.9
2023-03-12T16:45:54.773Z,6.2
2023-03-12T16:47:56.845Z,6.3
2023-03-12T16:49:58.848Z,5.7
2023-03-12T16:51:01.449Z,6.7
2023-03-12T16:53:03.226Z,4.1
2023-03-12T17:01:14.172Z,5.1
2023-03-12T17:03:16.127Z,8.9
2023-03-12T17:05:18.121Z,6.8
2023-03-12T17:07:20.079Z,6.7
2023-03-12T17:09:22.082Z,5.6
2023-03-12T17:11:24.060Z,5.8
2023-03-12T17:13:29.129Z,4.5
2023-03-12T17:15:31.096Z,8.5
2023-03-12T17:17:33.058Z,5.9
2023-03-12T17:19:35.043Z,6.6
2023-03-12T17:21:37.021Z,6.9
2023-03-12T17:23:39.016Z,6.2
2023-03-12T17:25:41.024Z,7.2
2023-03-12T17:27:46.016Z,7.7
2023-03-12T17:29:48.008Z,4.7
2023-03-12T17:31:50.002Z,6.2
2023-03-12T17:33:52.039Z,7.9
2023-03-12T17:35:54.085Z,6.5
2023-03-12T17:37:55.943Z,6.6
2023-03-12T17:39:57.916Z,5.3
2023-03-12T17:42:02.970Z,7.4
2023-03-12T17:44:04.956Z,6
2023-03-12T17:46:06.984Z,5.3
2023-03-12T17:47:09.464Z,6.1
2023-03-12T17:51:13.405Z,8
2023-03-12T17:55:20.434Z,6.9
2023-03-12T17:59:24.427Z,6.2
2023-03-12T18:05:30.353Z,8
2023-03-12T18:07:32.327Z,4.8
2023-03-12T18:09:37.353Z,7.8
2023-03-12T18:13:41.311Z,8.6
2023-03-12T18:15:43.380Z,8.4
2023-03-12T18:17:45.273Z,8.1
2023-03-12T18:19:47.257Z,3
2023-03-12T18:21:49.260Z,8.6
2023-03-12T18:23:55.744Z,6.1
2023-03-12T18:27:58.259Z,6.9
2023-03-12T18:30:00.244Z,6.4
2023-03-12T18:32:02.233Z,4.9
2023-03-12T18:34:04.209Z,7.9
2023-03-12T18:36:06.299Z,7.1
2023-03-12T18:38:12.736Z,7.6
2023-03-12T18:40:14.702Z,7.1
2023-03-12T18:42:16.692Z,5.8
2023-03-12T18:44:33.428Z,4.9
2023-03-12T18:46:35.458Z,4.5
2023-03-12T18:48:37.396Z,7.6
2023-03-12T18:50:42.401Z,6.8
2023-03-12T18:52:44.403Z,7.3
2023-03-12T18:54:46.409Z,7.4
2023-03-12T18:58:50.353Z,8.7
2023-03-12T19:00:52.365Z,6.1
2023-03-12T19:02:54.382Z,5.5
2023-03-12T19:04:59.378Z,7
2023-03-12T19:07:01.393Z,6.5
2023-03-12T19:09:03.373Z,6.3
2023-03-12T19:11:05.345Z,4.2
2023-03-12T19:13:07.323Z,5.8
2023-03-12T19:23:20.310Z,4
2023-03-12T19:37:37.284Z,1.4
2023-03-12T19:38:39.816Z,3
2023-03-12T19:40:41.769Z,4.6
2023-03-12T19:42:43.750Z,4
2023-03-12T19:44:45.731Z,3
2023-03-12T19:46:50.777Z,3.3
2023-03-12T19:48:52.768Z,3.6
2023-03-12T19:50:54.928Z,4
2023-03-12T19:52:56.729Z,3.6
2023-03-12T19:55:04.823Z,4.8
2023-03-12T19:57:00.706Z,5.6
2023-03-12T20:03:09.839Z,6.6
2023-03-12T20:05:11.690Z,4.9
2023-03-12T20:13:19.640Z,6
2023-03-12T20:15:24.668Z,6.5
2023-03-12T20:17:26.669Z,6.8
2023-03-12T20:19:28.636Z,7.4
2023-03-12T20:21:30.846Z,6.3
2023-03-12T20:23:32.603Z,9.4
2023-03-12T20:25:34.583Z,6.8
2023-03-12T20:27:36.555Z,5.6
2023-03-12T20:29:41.587Z,7.7
2023-03-12T20:31:43.656Z,6.8
2023-03-12T20:33:45.540Z,7.9
2023-03-12T20:36:50.041Z,6.6
2023-03-12T20:38:52.028Z,9.5
2023-03-12T20:40:54.003Z,7.2
2023-03-12T20:42:59.044Z,8.9
2023-03-12T20:45:01.017Z,10.6
2023-03-12T20:47:03.015Z,8
2023-03-12T20:49:04.992Z,7.2
2023-03-12T20:51:06.972Z,8.2
2023-03-12T20:53:08.952Z,7.9
2023-03-12T20:55:10.923Z,8.9
2023-03-12T20:57:15.982Z,9.1
2023-03-12T20:59:17.943Z,10.5
2023-03-12T21:03:21.933Z,9
2023-03-12T21:05:25.040Z,11.9
2023-03-12T21:07:25.902Z,9.1
2023-03-12T21:09:27.857Z,8
2023-03-12T21:11:32.908Z,6.9
2023-03-12T21:13:34.917Z,8
2023-03-12T21:15:36.873Z,5.6
2023-03-12T21:17:38.878Z,6.2
2023-03-12T21:19:40.864Z,10
2023-03-12T21:21:42.845Z,6.4
2023-03-12T21:23:44.883Z,7.9
2023-03-12T21:25:49.844Z,7.8
2023-03-12T21:27:52.112Z,8.1
2023-03-12T21:29:53.814Z,8.8
2023-03-12T21:30:56.390Z,9.3
2023-03-12T21:32:58.381Z,6.8
2023-03-12T21:35:00.319Z,6.4
2023-03-12T21:37:02.253Z,7.2
2023-03-12T21:39:07.324Z,8.3
2023-03-12T21:41:09.297Z,5.7
2023-03-12T21:43:11.305Z,7.1
2023-03-12T21:45:13.255Z,7.1
2023-03-12T21:47:15.223Z,8.2
2023-03-12T21:49:17.274Z,8.8
2023-03-12T21:51:19.216Z,6
2023-03-12T21:53:24.299Z,8.3
2023-03-12T21:55:26.222Z,6.2
2023-03-12T21:57:28.200Z,6.1
2023-03-12T21:59:30.179Z,10.3
2023-03-12T22:01:32.327Z,7.3
2023-03-12T22:03:34.122Z,7.8
2023-03-12T22:05:36.102Z,6.9
2023-03-12T22:07:41.162Z,7.2
2023-03-12T22:09:43.109Z,6.8
2023-03-12T22:17:51.024Z,7.2
2023-03-12T22:19:53.012Z,6.9
2023-03-12T22:24:00.022Z,5.8
2023-03-12T22:26:02.034Z,7.1
2023-03-12T22:28:25.745Z,7.4
2023-03-12T22:30:26.632Z,6.2
2023-03-12T22:34:33.625Z,6.4
2023-03-12T22:36:35.586Z,6.1
2023-03-12T22:38:37.583Z,8.1
2023-03-12T22:40:39.582Z,6.8
2023-03-12T22:42:41.525Z,8.1
2023-03-12T22:44:43.511Z,7.9
2023-03-12T22:48:50.526Z,7.6
2023-03-12T22:50:52.530Z,6.2
2023-03-12T22:56:58.457Z,7
2023-03-12T22:59:00.410Z,5
2023-03-12T23:01:02.422Z,5.4
2023-03-12T23:03:07.445Z,5.7
2023-03-12T23:05:09.403Z,5.2
2023-03-12T23:07:14.014Z,7.6
2023-03-12T23:11:15.356Z,6.6
2023-03-12T23:13:17.342Z,6.8
2023-03-12T23:15:21.059Z,7.3
2023-03-12T23:17:24.350Z,6.6
2023-03-12T23:21:28.279Z,6
2023-03-12T23:22:30.816Z,6.8
2023-03-12T23:24:32.820Z,9.8
2023-03-12T23:30:41.801Z,6.1
2023-03-12T23:36:47.731Z,5.6
2023-03-12T23:38:49.701Z,4.4
2023-03-12T23:40:51.692Z,6.4
2023-03-12T23:42:53.672Z,4.5
2023-03-12T23:44:58.696Z,5.6
2023-03-12T23:47:00.686Z,6.7
2023-03-12T23:49:02.641Z,7.6
2023-03-12T23:51:04.618Z,5.9
2023-03-12T23:53:06.599Z,5.7
2023-03-12T23:55:08.590Z,5.6
2023-03-12T23:57:10.552Z,6.7
2023-03-12T23:59:15.582Z,6.8
